Time;durP1;ratioP1;P1;durP2;ratioP2;P2;SDS_P1;SDS_P2;PMS_P1;PMS_P2;Temp;Humidity;BMP_temperature;BMP_pressure;BME280_temperature;BME280_humidity;BME280_pressure;Samples;Min_cycle;Max_cycle;Signal;HPM_P1;HPM_P2
2023/10/30 00:01:27;;;;;;;13.60;8.00;;;;;;;14.83;69.03;99133.08;109771;1250;74325;-55
2023/10/30 00:03:54;;;;;;;13.10;7.90;;;;;;;14.78;69.40;99125.25;109614;1252;67407;-55
2023/10/30 00:06:21;;;;;;;16.50;8.00;;;;;;;14.87;69.08;99127.66;109535;1253;72694;-55
2023/10/30 00:08:47;;;;;;;15.30;7.70;;;;;;;15.00;68.31;99124.34;109388;1251;61972;-55
2023/10/30 00:11:14;;;;;;;10.60;7.00;;;;;;;14.98;68.18;99124.16;109771;1250;60095;-56
2023/10/30 00:13:43;;;;;;;13.50;7.90;;;;;;;14.95;68.39;99123.83;109733;1251;75415;-54
2023/10/30 00:16:10;;;;;;;14.00;8.60;;;;;;;14.90;68.39;99119.20;109729;1250;68528;-54
2023/10/30 00:18:41;;;;;;;10.90;7.90;;;;;;;14.95;68.17;99120.80;109732;1250;71316;-56
2023/10/30 00:21:08;;;;;;;13.00;8.60;;;;;;;15.01;67.94;99123.09;109735;1251;60296;-55
2023/10/30 00:23:35;;;;;;;10.40;7.30;;;;;;;14.99;67.95;99123.60;109744;1250;59862;-56
2023/10/30 00:26:04;;;;;;;16.80;8.70;;;;;;;15.00;67.87;99123.42;109820;1250;75446;-56
2023/10/30 00:28:33;;;;;;;15.30;8.10;;;;;;;15.09;67.43;99126.40;109737;1250;67243;-54
2023/10/30 00:31:00;;;;;;;18.00;8.90;;;;;;;15.04;67.55;99120.92;109583;1251;72507;-55
2023/10/30 00:33:27;;;;;;;11.30;7.10;;;;;;;15.13;66.99;99122.42;109743;1251;62014;-55
2023/10/30 00:35:54;;;;;;;18.90;8.40;;;;;;;15.20;66.74;99127.33;109639;1251;60586;-55
2023/10/30 00:38:20;;;;;;;13.30;7.50;;;;;;;15.29;66.14;99130.11;109787;1251;75493;-55
2023/10/30 00:40:48;;;;;;;13.40;8.20;;;;;;;15.29;66.06;99130.01;109755;1250;66412;-55
2023/10/30 00:43:15;;;;;;;14.40;7.50;;;;;;;15.13;66.58;99128.75;109714;1251;71499;-55
2023/10/30 00:45:42;;;;;;;15.10;8.60;;;;;;;15.12;66.94;99133.95;109727;1250;61631;-55
2023/10/30 00:48:09;;;;;;;14.60;7.80;;;;;;;15.09;67.04;99127.30;109780;1250;59756;-54
2023/10/30 00:50:35;;;;;;;12.90;8.00;;;;;;;15.15;66.73;99126.33;109350;1251;75369;-55
2023/10/30 00:53:02;;;;;;;11.30;7.30;;;;;;;15.17;66.50;99121.98;109584;1251;67649;-55
2023/10/30 00:55:29;;;;;;;13.50;8.40;;;;;;;15.13;66.88;99119.66;109725;1250;71425;-55
2023/10/30 00:57:55;;;;;;;15.80;8.90;;;;;;;15.26;66.27;99117.45;109618;1251;60573;-55
2023/10/30 01:00:22;;;;;;;12.80;8.40;;;;;;;15.25;66.13;99113.80;109724;1250;59668;-55
2023/10/30 01:02:49;;;;;;;13.70;7.70;;;;;;;15.31;65.79;99107.74;109575;1252;73915;-55
2023/10/30 01:05:15;;;;;;;15.90;8.00;;;;;;;15.37;65.46;99111.65;109552;1250;67470;-55
2023/10/30 01:07:43;;;;;;;12.10;7.70;;;;;;;15.37;65.21;99108.73;109702;1250;71235;-55
2023/10/30 01:10:10;;;;;;;18.70;9.30;;;;;;;15.44;64.90;99106.56;109654;1250;60694;-55
2023/10/30 01:12:36;;;;;;;11.10;7.90;;;;;;;15.33;65.31;99107.11;109753;1251;60324;-55
2023/10/30 01:15:03;;;;;;;13.30;8.50;;;;;;;15.35;65.14;99109.14;109752;1250;75349;-55
2023/10/30 01:17:30;;;;;;;17.60;9.00;;;;;;;15.29;65.44;99110.98;109183;1251;67815;-55
2023/10/30 01:20:03;;;;;;;14.00;8.00;;;;;;;15.26;65.48;99111.98;109667;1250;72690;-54
2023/10/30 01:22:30;;;;;;;15.70;8.70;;;;;;;15.21;65.80;99106.45;109700;1250;60378;-56
2023/10/30 01:24:57;;;;;;;15.40;8.20;;;;;;;15.27;65.63;99105.36;109770;1251;60157;-55
2023/10/30 01:27:23;;;;;;;15.00;8.80;;;;;;;15.27;65.49;99106.35;109463;1251;75348;-54
2023/10/30 01:29:51;;;;;;;17.20;8.80;;;;;;;15.22;65.77;99101.52;109729;1250;67302;-55
2023/10/30 01:32:17;;;;;;;15.30;9.00;;;;;;;15.23;65.65;99099.39;109723;1250;71122;-55
2023/10/30 01:34:44;;;;;;;15.70;9.60;;;;;;;15.23;65.50;99096.88;109704;1250;60595;-55
2023/10/30 01:37:11;;;;;;;14.40;8.30;;;;;;;15.23;65.63;99102.96;109746;1250;60177;-55
2023/10/30 01:39:37;;;;;;;14.70;8.90;;;;;;;15.15;65.95;99099.08;109744;1250;75308;-55
2023/10/30 01:42:04;;;;;;;14.90;9.60;;;;;;;15.16;65.93;99102.36;109746;1250;67596;-55
2023/10/30 01:44:31;;;;;;;18.50;10.60;;;;;;;15.22;65.80;99102.91;109761;1250;72172;-55
2023/10/30 01:46:57;;;;;;;19.40;10.80;;;;;;;15.14;66.09;99103.36;109721;1250;59950;-55
2023/10/30 01:49:25;;;;;;;19.00;10.60;;;;;;;15.25;65.75;99104.92;109414;1251;59911;-55
2023/10/30 01:51:52;;;;;;;24.90;9.80;;;;;;;15.24;65.72;99105.48;109768;1250;75225;-55
2023/10/30 01:54:18;;;;;;;20.90;11.90;;;;;;;15.37;65.21;99104.63;109389;1251;68713;-55
2023/10/30 01:56:45;;;;;;;21.00;12.60;;;;;;;15.43;64.81;99106.52;109702;1250;72695;-55
2023/10/30 01:59:11;;;;;;;23.20;13.20;;;;;;;15.47;64.57;99105.59;109625;1251;62062;-55
2023/10/30 02:01:38;;;;;;;20.20;12.20;;;;;;;15.47;64.50;99106.30;109754;1250;59773;-54
2023/10/30 02:04:05;;;;;;;20.40;10.80;;;;;;;15.55;64.08;99108.21;109597;1251;75558;-55
2023/10/30 02:06:32;;;;;;;21.80;12.10;;;;;;;15.39;64.69;99109.61;109745;1250;67049;-55
2023/10/30 02:09:00;;;;;;;19.90;10.40;;;;;;;15.42;64.73;99108.63;109652;1251;72646;-55
2023/10/30 02:11:26;;;;;;;16.40;10.20;;;;;;;15.59;63.95;99105.42;109368;1251;62292;-55
2023/10/30 02:13:55;;;;;;;15.40;9.40;;;;;;;15.69;63.54;99100.88;109232;1251;60286;-54
2023/10/30 02:16:22;;;;;;;18.20;7.80;;;;;;;15.58;63.86;99096.62;109766;1250;74298;-54
2023/10/30 02:18:48;;;;;;;18.80;10.30;;;;;;;15.68;63.59;99094.08;109414;1250;67275;-55
2023/10/30 02:21:17;;;;;;;17.50;8.90;;;;;;;15.74;63.27;99092.70;109530;1251;72396;-53
2023/10/30 02:23:44;;;;;;;17.00;9.50;;;;;;;15.65;63.71;99092.57;109596;1251;61129;-54
2023/10/30 02:26:11;;;;;;;23.60;11.60;;;;;;;15.68;63.44;99097.44;109364;1251;59812;-54
2023/10/30 02:28:38;;;;;;;23.60;10.20;;;;;;;15.70;63.31;99099.90;109774;1250;74116;-54
2023/10/30 02:31:04;;;;;;;16.90;11.20;;;;;;;15.77;63.08;99103.13;109727;1251;67621;-54
2023/10/30 02:33:31;;;;;;;25.10;11.30;;;;;;;15.70;63.41;99102.23;109554;1251;72732;-54
2023/10/30 02:35:58;;;;;;;17.30;10.20;;;;;;;15.58;63.85;99104.63;109751;1250;61127;-55
2023/10/30 02:38:24;;;;;;;20.10;10.80;;;;;;;15.63;63.85;99106.92;109740;1250;60428;-55
2023/10/30 02:40:51;;;;;;;16.80;10.20;;;;;;;15.77;63.50;99106.48;109423;1250;74401;-54
2023/10/30 02:43:18;;;;;;;17.30;10.10;;;;;;;15.77;63.37;99102.20;109649;1251;67293;-54
2023/10/30 02:45:45;;;;;;;19.90;11.90;;;;;;;15.84;63.35;99103.82;109741;1250;72588;-54
2023/10/30 02:48:12;;;;;;;17.90;10.30;;;;;;;15.79;63.72;99104.08;109698;1250;61630;-55
2023/10/30 02:50:38;;;;;;;16.60;10.00;;;;;;;15.74;63.64;99102.26;109737;1250;59750;-55
2023/10/30 02:53:05;;;;;;;14.40;9.70;;;;;;;15.65;64.18;99097.12;109775;1250;74374;-56
2023/10/30 02:55:31;;;;;;;13.90;8.80;;;;;;;15.63;64.16;99096.05;109724;1250;67334;-55
2023/10/30 02:57:58;;;;;;;16.00;9.00;;;;;;;15.70;64.01;99096.59;109740;1250;72570;-55
2023/10/30 03:00:24;;;;;;;16.20;8.30;;;;;;;15.74;63.79;99107.48;109754;1250;61266;-55
2023/10/30 03:02:51;;;;;;;15.30;8.00;;;;;;;15.79;63.64;99103.59;109705;1251;59781;-55
2023/10/30 03:05:18;;;;;;;15.70;9.10;;;;;;;15.77;63.76;99106.59;109726;1250;74235;-55
2023/10/30 03:07:45;;;;;;;17.30;10.10;;;;;;;15.89;63.29;99104.87;109724;1250;68561;-55
2023/10/30 03:10:11;;;;;;;15.10;8.70;;;;;;;15.93;63.07;99104.30;109640;1250;72757;-54
2023/10/30 03:12:38;;;;;;;13.60;8.80;;;;;;;15.86;63.23;99102.48;109635;1250;61649;-55
2023/10/30 03:15:06;;;;;;;13.70;8.30;;;;;;;15.95;63.23;99100.48;109686;1250;59813;-56
2023/10/30 03:17:32;;;;;;;14.50;9.10;;;;;;;15.98;62.87;99099.38;109749;1250;75536;-55
2023/10/30 03:19:59;;;;;;;15.20;8.60;;;;;;;16.00;63.16;99100.47;109750;1250;67435;-53
2023/10/30 03:22:26;;;;;;;17.30;8.90;;;;;;;16.03;62.99;99104.85;109731;1250;71478;-54
2023/10/30 03:24:52;;;;;;;14.20;8.10;;;;;;;15.83;63.33;99100.05;109735;1250;61948;-54
2023/10/30 03:27:19;;;;;;;14.70;8.00;;;;;;;15.88;63.40;99097.73;109747;1250;59789;-54
2023/10/30 03:29:46;;;;;;;17.60;9.30;;;;;;;16.07;62.61;99096.94;109581;1253;74297;-54
2023/10/30 03:32:13;;;;;;;16.70;8.80;;;;;;;16.04;62.63;99097.86;109733;1250;66809;-54
2023/10/30 03:34:39;;;;;;;15.60;9.10;;;;;;;16.15;62.11;99091.96;109713;1250;72679;-54
2023/10/30 03:37:07;;;;;;;13.90;9.40;;;;;;;16.14;62.31;99093.91;109360;1253;61288;-55
2023/10/30 03:39:34;;;;;;;13.90;9.50;;;;;;;16.19;62.03;99096.15;109684;1250;60350;-54
2023/10/30 03:42:00;;;;;;;13.60;8.10;;;;;;;16.15;62.02;99088.86;109395;1256;74036;-54
2023/10/30 03:44:29;;;;;;;14.80;7.90;;;;;;;16.01;62.49;99081.64;109708;1250;68771;-54
2023/10/30 03:46:56;;;;;;;14.70;7.20;;;;;;;16.01;62.53;99081.36;109730;1250;72779;-54
2023/10/30 03:49:23;;;;;;;13.50;7.80;;;;;;;15.93;62.94;99076.58;109751;1250;62045;-54
2023/10/30 03:51:51;;;;;;;18.60;14.20;;;;;;;15.74;63.74;99074.93;109801;1250;59933;-54
2023/10/30 03:54:17;;;;;;;48.60;29.50;;;;;;;15.95;62.74;99074.86;109764;1250;75433;-54
2023/10/30 03:56:44;;;;;;;34.00;26.10;;;;;;;15.87;63.10;99073.61;109737;1251;67301;-54
2023/10/30 03:59:11;;;;;;;55.80;34.80;;;;;;;15.82;63.47;99067.86;109740;1250;72691;-54
2023/10/30 04:01:38;;;;;;;27.90;16.20;;;;;;;15.70;63.72;99065.27;109512;1253;60762;-54
2023/10/30 04:04:05;;;;;;;30.60;16.90;;;;;;;15.61;64.44;99068.39;109631;1250;59841;-54
2023/10/30 04:06:32;;;;;;;37.30;18.70;;;;;;;15.60;64.36;99069.04;109564;1252;75849;-55
2023/10/30 04:08:59;;;;;;;19.40;10.60;;;;;;;15.62;64.41;99067.67;109430;1251;68805;-55
2023/10/30 04:11:25;;;;;;;24.50;12.20;;;;;;;15.73;63.85;99070.80;109692;1250;72666;-54
2023/10/30 04:13:52;;;;;;;19.50;10.90;;;;;;;15.67;64.05;99068.19;109722;1251;62015;-54
2023/10/30 04:16:20;;;;;;;32.90;18.10;;;;;;;15.72;63.83;99069.58;109740;1250;59868;-54
2023/10/30 04:18:47;;;;;;;;;;;;;;;15.70;63.69;99058.94;109637;1251;75435;-54
2023/10/30 04:21:13;;;;;;;12.40;7.40;;;;;;;15.71;63.81;99055.90;109698;1250;68696;-54
2023/10/30 04:23:42;;;;;;;16.50;8.60;;;;;;;15.71;63.75;99054.16;109403;1251;72758;-54
2023/10/30 04:26:09;;;;;;;12.30;8.10;;;;;;;15.60;64.10;99049.09;109703;1250;61976;-55
2023/10/30 04:28:36;;;;;;;11.60;7.10;;;;;;;15.52;64.54;99041.61;109750;1250;59772;-55
2023/10/30 04:31:04;;;;;;;18.30;8.30;;;;;;;15.68;64.03;99039.77;109235;1251;75469;-56
2023/10/30 04:33:31;;;;;;;18.10;10.90;;;;;;;15.75;63.64;99039.92;109621;1250;120616;-55
2023/10/30 04:36:02;;;;;;;26.10;19.80;;;;;;;15.75;63.56;99039.59;109674;1250;72902;-55
2023/10/30 04:38:30;;;;;;;16.10;9.20;;;;;;;15.77;63.48;99038.94;109679;1250;60511;-55
2023/10/30 04:40:58;;;;;;;14.60;8.80;;;;;;;15.97;62.73;99035.70;109677;1250;59788;-55
2023/10/30 04:43:24;;;;;;;32.90;19.20;;;;;;;15.87;63.06;99040.91;109745;1250;74358;-53
2023/10/30 04:45:51;;;;;;;20.40;11.00;;;;;;;15.92;62.70;99043.11;109731;1250;67473;-54
2023/10/30 04:48:18;;;;;;;120.00;55.50;;;;;;;16.03;62.22;99035.52;109711;1250;72518;-55
2023/10/30 04:50:45;;;;;;;53.70;24.20;;;;;;;16.09;61.65;99040.16;109680;1250;62020;-55
2023/10/30 04:53:11;;;;;;;174.90;69.30;;;;;;;16.38;60.83;99046.95;109712;1250;59775;-55
2023/10/30 04:55:38;;;;;;;167.40;92.60;;;;;;;16.48;60.47;99050.42;109672;1250;74134;-55
2023/10/30 04:58:05;;;;;;;107.10;44.50;;;;;;;16.65;59.68;99049.27;109740;1250;68667;-55
2023/10/30 05:00:31;;;;;;;296.90;98.50;;;;;;;16.73;59.27;99049.54;109568;1251;70912;-55
2023/10/30 05:02:58;;;;;;;696.10;236.90;;;;;;;16.74;59.10;99052.66;109625;1251;60453;-55
2023/10/30 05:05:25;;;;;;;211.20;67.50;;;;;;;16.70;59.19;99054.59;109501;1252;60343;-56
2023/10/30 05:07:51;;;;;;;87.60;31.30;;;;;;;16.82;58.75;99051.04;109442;1252;75272;-53
2023/10/30 05:10:18;;;;;;;24.50;12.70;;;;;;;16.59;58.96;99054.14;109497;1252;68429;-55
2023/10/30 05:12:45;;;;;;;143.90;53.80;;;;;;;16.59;59.24;99052.52;109535;1252;72572;-55
2023/10/30 05:15:11;;;;;;;342.10;125.00;;;;;;;16.61;59.22;99056.69;109506;1252;62010;-55
2023/10/30 05:17:38;;;;;;;40.20;14.90;;;;;;;16.68;59.15;99055.45;109524;1252;59737;-56
2023/10/30 05:20:06;;;;;;;200.40;71.10;;;;;;;16.82;58.78;99058.88;109492;1252;75281;-55
2023/10/30 05:22:33;;;;;;;466.00;177.10;;;;;;;17.01;57.93;99060.79;109332;1252;67290;-55
2023/10/30 05:25:02;;;;;;;78.40;34.20;;;;;;;16.91;58.16;99061.66;109566;1252;70441;-55
2023/10/30 05:27:30;;;;;;;89.30;42.60;;;;;;;16.90;58.37;99059.02;109493;1252;61918;-54
2023/10/30 05:29:56;;;;;;;160.90;79.10;;;;;;;16.83;58.26;99061.63;109526;1252;59744;-54
2023/10/30 05:32:23;;;;;;;137.80;66.40;;;;;;;17.02;58.09;99063.52;109511;1252;74105;-54
2023/10/30 05:34:50;;;;;;;292.90;164.80;;;;;;;17.02;57.94;99066.33;109515;1252;69173;-55
2023/10/30 05:37:16;;;;;;;27.00;16.20;;;;;;;16.92;58.22;99064.23;109534;1252;71567;-54
2023/10/30 05:39:43;;;;;;;48.50;28.20;;;;;;;16.88;58.43;99064.17;109473;1252;60582;-55
2023/10/30 05:42:10;;;;;;;38.30;20.50;;;;;;;16.97;58.15;99060.17;109531;1252;60337;-55
2023/10/30 05:44:36;;;;;;;128.30;68.50;;;;;;;17.12;57.63;99057.97;109572;1252;75233;-55
2023/10/30 05:47:03;;;;;;;13.00;7.80;;;;;;;17.37;56.92;99060.23;109525;1252;68610;-55
2023/10/30 05:49:31;;;;;;;10.00;5.90;;;;;;;17.07;57.19;99056.33;109492;1252;71528;-55
2023/10/30 05:51:57;;;;;;;17.80;7.70;;;;;;;17.24;57.16;99060.09;109363;1252;61073;-55
2023/10/30 05:54:24;;;;;;;50.80;26.80;;;;;;;17.28;56.86;99063.81;109293;1253;59756;-55
2023/10/30 05:56:51;;;;;;;76.80;38.20;;;;;;;17.16;56.93;99064.91;109546;1252;74622;-55
2023/10/30 05:59:18;;;;;;;30.20;15.50;;;;;;;17.45;56.33;99070.10;109566;1252;67602;-56
2023/10/30 06:01:47;;;;;;;133.20;68.50;;;;;;;17.35;56.52;99071.11;109555;1252;71363;-54
2023/10/30 06:04:14;;;;;;;92.30;47.20;;;;;;;17.39;56.09;99072.36;109333;1252;60443;-54
2023/10/30 06:06:41;;;;;;;54.70;28.60;;;;;;;17.51;55.79;99070.20;109612;1251;60246;-54
2023/10/30 06:09:08;;;;;;;59.10;32.00;;;;;;;17.55;55.51;99076.41;109663;1251;73543;-55
2023/10/30 06:11:34;;;;;;;57.20;29.80;;;;;;;17.82;55.17;99072.50;109368;1251;68893;-54
2023/10/30 06:14:01;;;;;;;104.80;57.80;;;;;;;17.63;55.21;99071.25;109394;1250;72728;-54
2023/10/30 06:16:28;;;;;;;55.00;27.70;;;;;;;17.69;55.22;99073.92;109707;1251;60625;-54
2023/10/30 06:18:55;;;;;;;115.00;59.80;;;;;;;17.83;55.20;99076.89;109730;1250;59765;-55
2023/10/30 06:21:21;;;;;;;59.10;32.90;;;;;;;17.89;54.97;99077.90;109761;1250;75509;-56
2023/10/30 06:23:48;;;;;;;55.90;33.70;;;;;;;17.75;55.04;99071.27;109734;1250;67335;-54
2023/10/30 06:26:15;;;;;;;53.10;32.70;;;;;;;17.81;54.70;99073.68;109699;1250;72803;-56
2023/10/30 06:28:42;;;;;;;56.60;33.80;;;;;;;17.86;54.59;99073.22;109690;1250;61762;-55
2023/10/30 06:31:18;;;;;;;35.50;17.40;;;;;;;17.93;54.23;99065.91;109740;1250;59732;-55
2023/10/30 06:33:45;;;;;;;66.70;32.30;;;;;;;18.02;54.25;99066.03;109468;1251;74600;-56
2023/10/30 06:36:13;;;;;;;26.90;13.60;;;;;;;17.95;54.31;99064.52;109724;1250;67643;-54
2023/10/30 06:38:40;;;;;;;52.40;31.10;;;;;;;17.88;54.44;99062.91;109677;1250;71433;-54
2023/10/30 06:41:06;;;;;;;42.90;24.10;;;;;;;18.17;53.65;99061.92;109201;1250;62270;-56
2023/10/30 06:43:33;;;;;;;42.00;24.70;;;;;;;18.30;53.18;99061.05;109510;1250;59777;-56
2023/10/30 06:46:03;;;;;;;24.70;16.20;;;;;;;18.20;53.11;99062.00;109534;1251;74588;-55
2023/10/30 06:48:30;;;;;;;24.20;16.20;;;;;;;18.36;52.95;99066.23;109592;1252;68747;-55
2023/10/30 06:50:57;;;;;;;71.80;43.80;;;;;;;18.42;52.58;99068.59;109565;1250;72611;-56
2023/10/30 06:53:23;;;;;;;81.80;50.80;;;;;;;18.39;52.80;99069.59;109638;1251;62051;-56
2023/10/30 06:55:50;;;;;;;379.10;146.60;;;;;;;18.50;52.75;99069.11;109348;1251;59743;-57
2023/10/30 06:58:17;;;;;;;56.20;23.40;;;;;;;18.21;53.25;99068.80;109559;1251;75202;-56
2023/10/30 07:00:44;;;;;;;42.50;19.70;;;;;;;18.47;52.62;99064.84;109591;1251;67358;-56
2023/10/30 07:03:11;;;;;;;76.10;30.20;;;;;;;18.53;52.48;99063.08;109575;1251;72344;-56
2023/10/30 07:05:38;;;;;;;15.50;8.50;;;;;;;18.65;52.09;99065.00;109637;1251;60572;-56
2023/10/30 07:08:05;;;;;;;136.60;56.20;;;;;;;18.73;52.05;99065.33;109571;1252;61019;-56
2023/10/30 07:10:32;;;;;;;137.00;56.40;;;;;;;18.97;51.60;99070.44;109551;1251;75354;-55
2023/10/30 07:12:58;;;;;;;187.70;83.30;;;;;;;19.07;50.88;99068.91;109525;1252;68561;-55
2023/10/30 07:15:26;;;;;;;111.10;54.40;;;;;;;18.89;51.20;99063.31;109442;1252;70464;-56
2023/10/30 07:17:56;;;;;;;36.60;17.50;;;;;;;18.67;51.70;99066.66;109600;1252;61291;-56
2023/10/30 07:20:23;;;;;;;62.50;30.80;;;;;;;18.62;52.23;99071.68;109561;1252;59903;-55
2023/10/30 07:22:49;;;;;;;97.30;47.20;;;;;;;18.87;51.72;99068.91;109535;1252;75294;-56
2023/10/30 07:25:16;;;;;;;25.00;12.50;;;;;;;18.87;51.78;99069.56;109563;1251;67249;-55
2023/10/30 07:27:43;;;;;;;48.70;22.30;;;;;;;18.93;51.35;99065.19;109744;1251;72377;-56
2023/10/30 07:30:10;;;;;;;155.40;72.10;;;;;;;19.13;50.92;99068.84;109681;1250;60893;-55
2023/10/30 07:32:37;;;;;;;88.30;41.70;;;;;;;19.25;50.75;99066.56;109750;1251;59681;-56
2023/10/30 07:35:05;;;;;;;73.50;37.40;;;;;;;19.37;50.29;99065.05;109736;1250;74038;-55
2023/10/30 07:37:33;;;;;;;33.80;17.20;;;;;;;19.45;50.07;99059.65;109366;1251;67303;-56
2023/10/30 07:39:59;;;;;;;29.20;12.60;;;;;;;19.23;50.36;99059.73;109761;1251;72703;-55
2023/10/30 07:42:26;;;;;;;80.60;39.20;;;;;;;19.67;49.45;99064.21;109727;1250;60643;-55
2023/10/30 07:44:54;;;;;;;48.60;21.50;;;;;;;19.61;49.44;99065.98;109621;1251;60180;-56
2023/10/30 07:47:20;;;;;;;72.10;35.30;;;;;;;19.67;49.47;99066.82;109718;1250;74088;-55
2023/10/30 07:50:04;;;;;;;12.60;6.00;;;;;;;19.72;49.22;99062.02;109692;1251;67311;-55
2023/10/30 07:52:31;;;;;;;42.10;22.40;;;;;;;19.65;49.22;99061.11;109741;1250;72709;-57
2023/10/30 07:54:57;;;;;;;27.70;15.90;;;;;;;19.77;49.12;99060.47;109684;1250;61835;-56
2023/10/30 07:57:24;;;;;;;21.70;12.70;;;;;;;20.02;48.45;99063.85;109460;1251;60357;-54
2023/10/30 07:59:51;;;;;;;53.80;26.90;;;;;;;20.24;48.11;99067.06;109728;1250;73957;-55
2023/10/30 09:06:51;;;;;;;103.10;54.50;;;;;;;18.81;53.14;99041.42;109656;1252;59716;-55
2023/10/30 09:09:18;;;;;;;58.50;30.90;;;;;;;18.80;53.59;99040.80;109565;1250;75166;-55
2023/10/30 09:11:44;;;;;;;50.70;27.30;;;;;;;19.14;52.86;99038.98;109625;1253;67456;-55
2023/10/30 09:14:11;;;;;;;80.90;36.00;;;;;;;19.20;52.20;99041.72;109637;1251;73113;-54
2023/10/30 09:16:38;;;;;;;69.00;30.90;;;;;;;18.88;53.75;99041.58;109273;1253;59807;-55
2023/10/30 09:19:05;;;;;;;149.10;61.00;;;;;;;19.18;52.34;99036.19;109587;1255;59809;-55
2023/10/30 09:21:32;;;;;;;44.50;18.10;;;;;;;18.77;53.74;99035.64;109499;1251;75295;-57
2023/10/30 09:23:59;;;;;;;50.00;22.10;;;;;;;19.35;51.97;99040.79;109660;1250;67939;-56
2023/10/30 09:26:26;;;;;;;127.60;52.10;;;;;;;19.08;52.25;99032.55;109712;1251;71219;-55
2023/10/30 09:28:54;;;;;;;48.30;21.00;;;;;;;18.91;52.78;99031.66;109708;1250;60456;-55
2023/10/30 09:31:21;;;;;;;;;;;;;;;19.44;51.07;99034.72;109413;1251;60133;-56
2023/10/30 09:33:48;;;;;;;61.70;19.80;;;;;;;19.85;50.10;99029.42;109795;1250;75177;-55
2023/10/30 09:36:15;;;;;;;34.00;14.70;;;;;;;19.96;49.88;99031.71;109789;1250;68705;-56
2023/10/30 09:38:42;;;;;;;68.30;28.40;;;;;;;20.12;49.13;99035.08;109750;1250;71503;-55
2023/10/30 09:41:11;;;;;;;46.40;19.60;;;;;;;20.24;48.64;99035.69;109717;1250;59858;-55
2023/10/30 09:43:38;;;;;;;50.00;24.20;;;;;;;20.39;48.54;99040.39;109632;1251;59816;-55
2023/10/30 09:46:08;;;;;;;34.80;15.90;;;;;;;20.61;47.83;99036.31;109783;1251;74356;-55
2023/10/30 09:48:35;;;;;;;33.40;14.50;;;;;;;20.77;47.51;99036.42;109557;1251;68772;-55
2023/10/30 09:51:03;;;;;;;24.30;13.50;;;;;;;20.08;49.17;99034.98;109526;1251;72614;-55
2023/10/30 09:53:30;;;;;;;27.80;15.90;;;;;;;20.12;49.18;99026.74;109638;1255;60425;-55
2023/10/30 09:55:57;;;;;;;64.10;31.30;;;;;;;20.43;48.48;99029.95;109762;1251;59769;-55
2023/10/30 09:58:23;;;;;;;71.00;35.40;;;;;;;20.52;48.33;99026.86;109439;1251;75324;-56
2023/10/30 10:00:51;;;;;;;47.20;23.40;;;;;;;20.72;47.92;99030.20;109574;1251;66297;-57
2023/10/30 10:03:20;;;;;;;66.90;32.60;;;;;;;21.20;46.77;99026.41;109640;1253;72628;-56
2023/10/30 10:05:56;;;;;;;18.30;9.00;;;;;;;21.41;45.89;99026.13;109455;1252;59671;-57
2023/10/30 10:08:23;;;;;;;26.00;13.60;;;;;;;21.62;45.59;99029.18;109646;1252;59782;-58
2023/10/30 10:11:00;;;;;;;15.60;7.30;;;;;;;21.89;44.65;99025.21;109666;1251;75499;-55
2023/10/30 10:13:28;;;;;;;23.90;9.20;;;;;;;22.04;43.57;99028.27;109689;1251;68182;-56
2023/10/30 10:15:55;;;;;;;14.50;8.40;;;;;;;22.07;43.69;99027.56;109653;1250;71700;-56
2023/10/30 10:18:33;;;;;;;17.30;11.00;;;;;;;22.36;43.20;99018.10;109565;1251;59788;-55
2023/10/30 10:21:04;;;;;;;11.80;7.90;;;;;;;22.30;43.34;99019.95;109690;1251;59692;-56
2023/10/30 10:23:33;;;;;;;6.70;3.20;;;;;;;22.51;42.90;99013.77;109687;1251;74365;-56
2023/10/30 10:26:03;;;;;;;6.70;3.20;;;;;;;22.67;42.80;99019.40;109656;1251;68757;-56
2023/10/30 10:28:30;;;;;;;36.00;23.70;;;;;;;22.81;42.44;99013.89;109634;1251;71830;-55
2023/10/30 10:30:58;;;;;;;58.60;24.60;;;;;;;22.79;41.98;99010.03;109370;1250;60071;-57
2023/10/30 10:33:29;;;;;;;67.60;29.40;;;;;;;22.68;42.01;99003.01;109682;1251;60194;-57
2023/10/30 10:36:00;;;;;;;32.40;14.60;;;;;;;22.98;41.99;99004.56;109708;1251;73897;-56
2023/10/30 10:38:27;;;;;;;104.70;38.30;;;;;;;23.26;41.64;98999.96;109662;1251;68771;-57
2023/10/30 10:40:57;;;;;;;66.30;26.20;;;;;;;23.39;41.35;99002.26;109654;1251;72533;-58
2023/10/30 10:43:28;;;;;;;137.00;56.60;;;;;;;23.18;41.10;98999.31;109672;1251;60398;-59
2023/10/30 10:45:56;;;;;;;213.90;117.90;;;;;;;23.36;41.18;98994.42;109307;1251;60386;-57
2023/10/30 10:48:24;;;;;;;58.30;22.60;;;;;;;23.47;41.41;98986.89;109634;1250;74266;-57
2023/10/30 10:50:52;;;;;;;83.30;43.60;;;;;;;23.36;40.79;98994.67;109292;1251;68792;-56
2023/10/30 10:53:20;;;;;;;12.30;6.20;;;;;;;23.24;40.80;98983.27;109521;1251;71314;-60
2023/10/30 10:55:48;;;;;;;32.90;17.10;;;;;;;23.28;40.69;98989.85;109659;1251;59789;-57
2023/10/30 10:58:29;;;;;;;;;;;;;;;23.26;40.58;98994.50;109342;1251;59867;-59
2023/10/30 11:00:56;;;;;;;33.40;17.30;;;;;;;23.43;39.78;98993.30;109438;1251;74350;-56
2023/10/30 11:03:23;;;;;;;80.60;41.50;;;;;;;23.72;38.62;98996.58;109330;1253;68756;-55
2023/10/30 11:05:51;;;;;;;84.20;38.50;;;;;;;23.63;38.53;98992.21;109636;1251;72614;-56
2023/10/30 11:08:41;;;;;;;66.70;36.80;;;;;;;23.58;38.94;98990.85;109578;1251;60356;-56
2023/10/30 11:11:45;;;;;;;49.40;27.30;;;;;;;23.68;38.91;98998.76;109629;1252;59895;-56
2023/10/30 11:14:30;;;;;;;68.10;35.10;;;;;;;23.58;39.77;98987.94;109102;1257;74388;-56
2023/10/30 11:17:01;;;;;;;28.10;15.10;;;;;;;24.04;39.15;98996.02;109068;1257;67439;-56
2023/10/30 11:19:28;;;;;;;136.70;77.60;;;;;;;24.21;38.46;98988.46;109119;1257;72726;-58
2023/10/30 11:21:55;;;;;;;125.30;70.70;;;;;;;24.46;38.13;98991.20;109112;1258;60323;-58
2023/10/30 11:24:41;;;;;;;26.80;13.90;;;;;;;24.40;38.09;98987.23;109107;1257;59866;-59
2023/10/30 11:27:28;;;;;;;33.70;18.90;;;;;;;24.03;37.97;98986.96;109099;1257;73891;-58
2023/10/30 11:29:59;;;;;;;81.00;47.20;;;;;;;24.28;37.57;98992.16;108866;1263;67947;-57
2023/10/30 11:32:32;;;;;;;20.80;12.80;;;;;;;24.18;37.59;98984.81;108861;1262;72789;-56
2023/10/30 11:34:59;;;;;;;29.00;19.30;;;;;;;24.20;37.45;98987.91;108681;1263;60419;-56
2023/10/30 11:37:29;;;;;;;33.80;22.30;;;;;;;24.14;37.32;98982.98;108879;1263;59856;-57
2023/10/30 11:39:56;;;;;;;23.80;10.40;;;;;;;23.85;37.52;98981.55;108706;1263;74262;-58
2023/10/30 11:42:22;;;;;;;27.10;20.30;;;;;;;23.80;38.02;98974.23;108793;1263;67480;-57
2023/10/30 11:44:50;;;;;;;21.50;13.50;;;;;;;24.15;37.96;98981.30;108654;1263;71318;-58
2023/10/30 11:47:22;;;;;;;6.20;3.50;;;;;;;24.12;37.72;98977.55;108847;1263;60269;-58
2023/10/30 11:49:49;;;;;;;9.20;5.30;;;;;;;24.10;37.79;98972.52;108954;1257;59804;-57
2023/10/30 11:52:15;;;;;;;16.40;8.30;;;;;;;23.63;38.29;98977.39;109100;1258;75463;-56
2023/10/30 11:54:46;;;;;;;6.60;5.70;;;;;;;23.67;38.08;98969.00;108978;1259;68831;-57
2023/10/30 11:57:13;;;;;;;7.10;5.10;;;;;;;24.10;37.96;98973.52;109090;1257;72533;-57
2023/10/30 11:59:40;;;;;;;6.00;4.30;;;;;;;24.27;37.73;98974.04;109025;1257;59876;-58
2023/10/30 12:02:07;;;;;;;5.60;2.70;;;;;;;23.87;37.70;98972.64;109053;1257;60124;-57
2023/10/30 12:04:34;;;;;;;5.20;2.70;;;;;;;24.04;37.67;98967.73;109129;1257;75264;-57
2023/10/30 12:07:01;;;;;;;5.30;2.40;;;;;;;24.14;37.50;98973.12;109346;1253;68846;-57
2023/10/30 12:09:28;;;;;;;3.30;2.00;;;;;;;24.03;37.58;98965.42;109655;1251;73013;-56
2023/10/30 12:11:57;;;;;;;29.80;20.70;;;;;;;24.10;37.74;98970.68;109725;1251;60270;-55
2023/10/30 12:14:26;;;;;;;50.40;28.80;;;;;;;24.25;37.58;98972.81;109210;1251;59833;-56
2023/10/30 12:16:53;;;;;;;27.10;15.20;;;;;;;24.51;37.28;98965.61;109763;1251;75320;-56
2023/10/30 12:19:20;;;;;;;11.50;6.40;;;;;;;24.12;37.34;98969.17;109783;1251;68821;-56